sensor_id;sensor_type;location;lat;lon;timestamp;P1;durP1;ratioP1;P2;durP2;ratioP2
47804;SDS011;33568;45.286;9.900;2024-01-06T00:01:41;24.83;;;22.50;;
47804;SDS011;33568;45.286;9.900;2024-01-06T00:04:08;28.58;;;25.50;;
47804;SDS011;33568;45.286;9.900;2024-01-06T00:06:34;28.25;;;25.55;;
47804;SDS011;33568;45.286;9.900;2024-01-06T00:09:01;26.38;;;23.85;;
47804;SDS011;33568;45.286;9.900;2024-01-06T00:11:30;26.52;;;23.83;;
47804;SDS011;33568;45.286;9.900;2024-01-06T00:13:56;24.83;;;22.65;;
47804;SDS011;33568;45.286;9.900;2024-01-06T00:16:23;26.13;;;23.52;;
47804;SDS011;33568;45.286;9.900;2024-01-06T00:18:49;27.02;;;24.55;;
47804;SDS011;33568;45.286;9.900;2024-01-06T00:21:16;24.33;;;21.92;;
47804;SDS011;33568;45.286;9.900;2024-01-06T00:23:42;21.10;;;18.90;;
47804;SDS011;33568;45.286;9.900;2024-01-06T00:28:35;11.82;;;10.73;;
47804;SDS011;33568;45.286;9.900;2024-01-06T00:31:02;11.20;;;10.20;;
47804;SDS011;33568;45.286;9.900;2024-01-06T00:35:54;10.20;;;9.30;;
47804;SDS011;33568;45.286;9.900;2024-01-06T00:38:21;10.75;;;9.75;;
47804;SDS011;33568;45.286;9.900;2024-01-06T00:43:14;9.15;;;8.35;;
47804;SDS011;33568;45.286;9.900;2024-01-06T00:45:40;8.75;;;7.95;;
47804;SDS011;33568;45.286;9.900;2024-01-06T00:48:07;9.52;;;8.73;;
47804;SDS011;33568;45.286;9.900;2024-01-06T00:50:35;9.93;;;9.02;;
47804;SDS011;33568;45.286;9.900;2024-01-06T00:53:02;8.88;;;7.97;;
47804;SDS011;33568;45.286;9.900;2024-01-06T00:57:54;8.40;;;7.63;;
47804;SDS011;33568;45.286;9.900;2024-01-06T01:00:21;8.52;;;7.72;;
47804;SDS011;33568;45.286;9.900;2024-01-06T01:02:48;8.98;;;8.07;;
47804;SDS011;33568;45.286;9.900;2024-01-06T01:05:14;8.45;;;7.65;;
47804;SDS011;33568;45.286;9.900;2024-01-06T01:10:07;7.03;;;6.43;;
47804;SDS011;33568;45.286;9.900;2024-01-06T01:12:35;7.78;;;7.07;;
47804;SDS011;33568;45.286;9.900;2024-01-06T01:15:02;8.32;;;7.63;;
47804;SDS011;33568;45.286;9.900;2024-01-06T01:17:30;8.15;;;7.35;;
47804;SDS011;33568;45.286;9.900;2024-01-06T01:19:56;8.55;;;7.85;;
47804;SDS011;33568;45.286;9.900;2024-01-06T01:22:22;8.38;;;7.63;;
47804;SDS011;33568;45.286;9.900;2024-01-06T01:24:49;7.15;;;6.55;;
47804;SDS011;33568;45.286;9.900;2024-01-06T01:27:15;7.65;;;6.95;;
47804;SDS011;33568;45.286;9.900;2024-01-06T01:32:08;7.97;;;7.13;;
47804;SDS011;33568;45.286;9.900;2024-01-06T01:34:34;6.82;;;6.22;;
47804;SDS011;33568;45.286;9.900;2024-01-06T01:39:27;9.05;;;8.25;;
47804;SDS011;33568;45.286;9.900;2024-01-06T01:44:20;8.40;;;7.65;;
47804;SDS011;33568;45.286;9.900;2024-01-06T01:46:46;8.07;;;7.32;;
47804;SDS011;33568;45.286;9.900;2024-01-06T01:49:13;8.50;;;7.70;;
47804;SDS011;33568;45.286;9.900;2024-01-06T01:51:40;10.38;;;7.15;;
47804;SDS011;33568;45.286;9.900;2024-01-06T01:54:09;7.35;;;6.65;;
47804;SDS011;33568;45.286;9.900;2024-01-06T01:56:35;7.05;;;6.45;;
47804;SDS011;33568;45.286;9.900;2024-01-06T01:59:13;7.35;;;6.75;;
47804;SDS011;33568;45.286;9.900;2024-01-06T02:01:43;7.13;;;6.53;;
47804;SDS011;33568;45.286;9.900;2024-01-06T02:04:10;6.95;;;6.35;;
47804;SDS011;33568;45.286;9.900;2024-01-06T02:06:36;7.07;;;6.53;;
47804;SDS011;33568;45.286;9.900;2024-01-06T02:09:03;6.68;;;6.07;;
47804;SDS011;33568;45.286;9.900;2024-01-06T02:11:31;7.05;;;6.45;;
47804;SDS011;33568;45.286;9.900;2024-01-06T02:13:57;7.30;;;6.70;;
47804;SDS011;33568;45.286;9.900;2024-01-06T02:16:24;7.35;;;6.65;;
47804;SDS011;33568;45.286;9.900;2024-01-06T02:18:50;7.90;;;7.20;;
47804;SDS011;33568;45.286;9.900;2024-01-06T02:23:43;7.63;;;6.97;;
47804;SDS011;33568;45.286;9.900;2024-01-06T02:26:10;8.07;;;7.38;;
47804;SDS011;33568;45.286;9.900;2024-01-06T02:28:37;7.93;;;7.30;;
47804;SDS011;33568;45.286;9.900;2024-01-06T02:31:03;8.68;;;7.97;;
47804;SDS011;33568;45.286;9.900;2024-01-06T02:33:30;8.52;;;7.82;;
47804;SDS011;33568;45.286;9.900;2024-01-06T02:35:56;8.93;;;8.13;;
47804;SDS011;33568;45.286;9.900;2024-01-06T02:38:22;8.40;;;7.65;;
47804;SDS011;33568;45.286;9.900;2024-01-06T02:40:49;8.95;;;8.15;;
47804;SDS011;33568;45.286;9.900;2024-01-06T02:43:15;10.15;;;9.27;;
47804;SDS011;33568;45.286;9.900;2024-01-06T02:45:42;9.80;;;9.00;;
47804;SDS011;33568;45.286;9.900;2024-01-06T02:48:08;10.85;;;9.95;;
47804;SDS011;33568;45.286;9.900;2024-01-06T02:50:35;9.40;;;8.50;;
47804;SDS011;33568;45.286;9.900;2024-01-06T02:53:01;10.30;;;9.40;;
47804;SDS011;33568;45.286;9.900;2024-01-06T02:55:28;10.07;;;9.25;;
47804;SDS011;33568;45.286;9.900;2024-01-06T02:57:55;11.38;;;10.38;;
47804;SDS011;33568;45.286;9.900;2024-01-06T03:00:21;11.32;;;10.32;;
47804;SDS011;33568;45.286;9.900;2024-01-06T03:02:48;12.75;;;10.50;;
47804;SDS011;33568;45.286;9.900;2024-01-06T03:05:14;11.15;;;9.85;;
47804;SDS011;33568;45.286;9.900;2024-01-06T03:07:42;10.95;;;10.05;;
47804;SDS011;33568;45.286;9.900;2024-01-06T03:10:10;10.73;;;9.82;;
47804;SDS011;33568;45.286;9.900;2024-01-06T03:12:36;10.88;;;9.98;;
47804;SDS011;33568;45.286;9.900;2024-01-06T03:15:03;11.32;;;10.40;;
47804;SDS011;33568;45.286;9.900;2024-01-06T03:17:29;11.10;;;10.15;;
47804;SDS011;33568;45.286;9.900;2024-01-06T03:19:56;11.75;;;10.75;;
47804;SDS011;33568;45.286;9.900;2024-01-06T03:22:23;11.32;;;10.32;;
47804;SDS011;33568;45.286;9.900;2024-01-06T03:24:49;11.13;;;10.13;;
47804;SDS011;33568;45.286;9.900;2024-01-06T03:27:15;12.00;;;11.00;;
47804;SDS011;33568;45.286;9.900;2024-01-06T03:29:42;11.50;;;10.50;;
47804;SDS011;33568;45.286;9.900;2024-01-06T03:32:08;11.85;;;10.80;;
47804;SDS011;33568;45.286;9.900;2024-01-06T03:34:35;12.25;;;11.20;;
47804;SDS011;33568;45.286;9.900;2024-01-06T03:37:01;12.85;;;10.85;;
47804;SDS011;33568;45.286;9.900;2024-01-06T03:39:28;11.18;;;10.23;;
47804;SDS011;33568;45.286;9.900;2024-01-06T03:41:54;11.75;;;10.65;;
47804;SDS011;33568;45.286;9.900;2024-01-06T03:46:47;11.50;;;10.52;;
47804;SDS011;33568;45.286;9.900;2024-01-06T03:49:14;12.02;;;10.93;;
47804;SDS011;33568;45.286;9.900;2024-01-06T03:51:40;12.10;;;10.98;;
47804;SDS011;33568;45.286;9.900;2024-01-06T03:56:33;11.02;;;10.05;;
47804;SDS011;33568;45.286;9.900;2024-01-06T03:58:59;11.73;;;10.65;;
47804;SDS011;33568;45.286;9.900;2024-01-06T04:01:26;11.02;;;10.07;;
47804;SDS011;33568;45.286;9.900;2024-01-06T04:03:54;11.48;;;10.48;;
47804;SDS011;33568;45.286;9.900;2024-01-06T04:06:21;12.23;;;11.13;;
47804;SDS011;33568;45.286;9.900;2024-01-06T04:08:47;11.52;;;10.50;;
47804;SDS011;33568;45.286;9.900;2024-01-06T04:13:40;11.52;;;10.52;;
47804;SDS011;33568;45.286;9.900;2024-01-06T04:16:06;12.40;;;11.27;;
47804;SDS011;33568;45.286;9.900;2024-01-06T04:18:32;12.52;;;11.45;;
47804;SDS011;33568;45.286;9.900;2024-01-06T04:20:59;11.65;;;10.65;;
47804;SDS011;33568;45.286;9.900;2024-01-06T04:23:25;11.75;;;10.77;;
47804;SDS011;33568;45.286;9.900;2024-01-06T04:25:52;11.77;;;10.77;;
47804;SDS011;33568;45.286;9.900;2024-01-06T04:28:18;11.32;;;10.38;;
47804;SDS011;33568;45.286;9.900;2024-01-06T04:30:45;11.80;;;10.80;;
47804;SDS011;33568;45.286;9.900;2024-01-06T04:33:11;12.52;;;11.43;;
47804;SDS011;33568;45.286;9.900;2024-01-06T04:35:37;13.10;;;12.00;;
47804;SDS011;33568;45.286;9.900;2024-01-06T04:38:04;12.93;;;11.82;;
47804;SDS011;33568;45.286;9.900;2024-01-06T04:40:30;13.43;;;11.90;;
47804;SDS011;33568;45.286;9.900;2024-01-06T04:45:23;13.68;;;12.48;;
47804;SDS011;33568;45.286;9.900;2024-01-06T04:50:16;14.10;;;12.82;;
47804;SDS011;33568;45.286;9.900;2024-01-06T04:55:09;15.05;;;13.73;;
47804;SDS011;33568;45.286;9.900;2024-01-06T04:57:36;16.17;;;14.68;;
47804;SDS011;33568;45.286;9.900;2024-01-06T05:00:03;17.00;;;15.40;;
47804;SDS011;33568;45.286;9.900;2024-01-06T05:02:30;18.00;;;16.40;;
47804;SDS011;33568;45.286;9.900;2024-01-06T05:07:23;17.70;;;15.98;;
47804;SDS011;33568;45.286;9.900;2024-01-06T05:09:49;19.55;;;17.55;;
47804;SDS011;33568;45.286;9.900;2024-01-06T05:12:15;19.95;;;18.05;;
47804;SDS011;33568;45.286;9.900;2024-01-06T05:14:42;20.52;;;18.40;;
47804;SDS011;33568;45.286;9.900;2024-01-06T05:17:08;19.85;;;17.85;;
47804;SDS011;33568;45.286;9.900;2024-01-06T05:19:35;19.60;;;17.70;;
47804;SDS011;33568;45.286;9.900;2024-01-06T05:22:02;20.60;;;18.63;;
47804;SDS011;33568;45.286;9.900;2024-01-06T05:26:54;20.10;;;17.80;;
47804;SDS011;33568;45.286;9.900;2024-01-06T05:29:21;20.27;;;18.30;;
47804;SDS011;33568;45.286;9.900;2024-01-06T05:31:47;19.50;;;17.63;;
47804;SDS011;33568;45.286;9.900;2024-01-06T05:34:15;19.27;;;17.50;;
47804;SDS011;33568;45.286;9.900;2024-01-06T05:36:41;19.98;;;18.15;;
47804;SDS011;33568;45.286;9.900;2024-01-06T05:39:08;21.10;;;19.10;;
47804;SDS011;33568;45.286;9.900;2024-01-06T05:41:40;20.48;;;18.45;;
47804;SDS011;33568;45.286;9.900;2024-01-06T05:44:07;19.42;;;17.55;;
47804;SDS011;33568;45.286;9.900;2024-01-06T05:49:00;18.27;;;16.48;;
47804;SDS011;33568;45.286;9.900;2024-01-06T05:53:53;17.73;;;15.50;;
47804;SDS011;33568;45.286;9.900;2024-01-06T05:56:23;20.15;;;18.15;;
47804;SDS011;33568;45.286;9.900;2024-01-06T05:58:51;19.40;;;17.40;;
47804;SDS011;33568;45.286;9.900;2024-01-06T06:01:19;19.27;;;17.10;;
47804;SDS011;33568;45.286;9.900;2024-01-06T06:03:46;21.30;;;17.33;;
47804;SDS011;33568;45.286;9.900;2024-01-06T06:06:13;24.33;;;21.73;;
47804;SDS011;33568;45.286;9.900;2024-01-06T06:08:41;23.42;;;21.02;;
47804;SDS011;33568;45.286;9.900;2024-01-06T06:11:08;22.88;;;20.55;;
47804;SDS011;33568;45.286;9.900;2024-01-06T06:13:38;20.10;;;18.08;;
47804;SDS011;33568;45.286;9.900;2024-01-06T06:16:11;21.35;;;19.17;;
47804;SDS011;33568;45.286;9.900;2024-01-06T06:18:40;22.63;;;19.48;;
47804;SDS011;33568;45.286;9.900;2024-01-06T06:21:07;21.50;;;19.30;;
47804;SDS011;33568;45.286;9.900;2024-01-06T06:23:34;20.77;;;16.30;;
47804;SDS011;33568;45.286;9.900;2024-01-06T06:26:07;20.48;;;18.35;;
47804;SDS011;33568;45.286;9.900;2024-01-06T06:28:34;19.60;;;17.45;;
47804;SDS011;33568;45.286;9.900;2024-01-06T06:31:01;19.83;;;17.83;;
47804;SDS011;33568;45.286;9.900;2024-01-06T06:33:28;19.88;;;17.83;;
47804;SDS011;33568;45.286;9.900;2024-01-06T06:38:21;18.95;;;16.98;;
47804;SDS011;33568;45.286;9.900;2024-01-06T06:40:47;20.63;;;18.42;;
47804;SDS011;33568;45.286;9.900;2024-01-06T06:43:14;20.60;;;18.50;;
47804;SDS011;33568;45.286;9.900;2024-01-06T06:45:40;21.25;;;19.02;;
47804;SDS011;33568;45.286;9.900;2024-01-06T06:50:33;20.85;;;18.65;;
47804;SDS011;33568;45.286;9.900;2024-01-06T06:52:59;22.20;;;19.88;;
47804;SDS011;33568;45.286;9.900;2024-01-06T06:55:26;22.10;;;19.80;;
47804;SDS011;33568;45.286;9.900;2024-01-06T06:57:53;23.45;;;20.48;;
47804;SDS011;33568;45.286;9.900;2024-01-06T07:00:19;21.52;;;19.52;;
47804;SDS011;33568;45.286;9.900;2024-01-06T07:02:46;21.88;;;19.45;;
47804;SDS011;33568;45.286;9.900;2024-01-06T07:05:13;23.33;;;20.92;;
47804;SDS011;33568;45.286;9.900;2024-01-06T07:07:39;22.92;;;20.55;;
47804;SDS011;33568;45.286;9.900;2024-01-06T07:12:33;22.35;;;20.02;;
47804;SDS011;33568;45.286;9.900;2024-01-06T07:14:59;22.70;;;20.38;;
47804;SDS011;33568;45.286;9.900;2024-01-06T07:17:25;21.90;;;19.65;;
47804;SDS011;33568;45.286;9.900;2024-01-06T07:19:52;23.20;;;20.80;;
47804;SDS011;33568;45.286;9.900;2024-01-06T07:22:19;22.63;;;20.33;;
47804;SDS011;33568;45.286;9.900;2024-01-06T07:24:46;22.50;;;20.40;;
47804;SDS011;33568;45.286;9.900;2024-01-06T07:27:12;23.80;;;21.30;;
47804;SDS011;33568;45.286;9.900;2024-01-06T07:29:39;25.05;;;22.40;;
47804;SDS011;33568;45.286;9.900;2024-01-06T07:32:05;22.77;;;20.60;;
47804;SDS011;33568;45.286;9.900;2024-01-06T07:36:58;24.88;;;21.80;;
47804;SDS011;33568;45.286;9.900;2024-01-06T07:39:25;22.70;;;20.42;;
47804;SDS011;33568;45.286;9.900;2024-01-06T07:44:18;22.80;;;20.50;;
47804;SDS011;33568;45.286;9.900;2024-01-06T07:46:50;25.40;;;22.80;;
47804;SDS011;33568;45.286;9.900;2024-01-06T07:49:17;26.00;;;23.17;;
47804;SDS011;33568;45.286;9.900;2024-01-06T07:54:10;25.63;;;23.02;;
47804;SDS011;33568;45.286;9.900;2024-01-06T07:56:37;24.98;;;22.45;;
47804;SDS011;33568;45.286;9.900;2024-01-06T07:59:04;26.65;;;23.98;;
47804;SDS011;33568;45.286;9.900;2024-01-06T08:01:31;25.33;;;22.77;;
47804;SDS011;33568;45.286;9.900;2024-01-06T08:03:58;26.15;;;23.58;;
47804;SDS011;33568;45.286;9.900;2024-01-06T08:06:24;26.58;;;23.98;;
47804;SDS011;33568;45.286;9.900;2024-01-06T08:08:51;25.73;;;23.20;;
47804;SDS011;33568;45.286;9.900;2024-01-06T08:11:18;25.38;;;23.00;;
47804;SDS011;33568;45.286;9.900;2024-01-06T08:13:44;24.98;;;22.50;;
47804;SDS011;33568;45.286;9.900;2024-01-06T08:16:11;32.13;;;23.65;;
47804;SDS011;33568;45.286;9.900;2024-01-06T08:18:37;25.48;;;22.88;;
47804;SDS011;33568;45.286;9.900;2024-01-06T08:21:04;27.70;;;24.88;;
47804;SDS011;33568;45.286;9.900;2024-01-06T08:23:30;26.48;;;23.75;;
47804;SDS011;33568;45.286;9.900;2024-01-06T08:28:23;27.70;;;24.90;;
47804;SDS011;33568;45.286;9.900;2024-01-06T08:30:49;28.80;;;25.83;;
47804;SDS011;33568;45.286;9.900;2024-01-06T08:33:16;33.15;;;26.58;;
47804;SDS011;33568;45.286;9.900;2024-01-06T08:35:43;30.83;;;27.50;;
47804;SDS011;33568;45.286;9.900;2024-01-06T08:38:10;30.30;;;27.02;;
47804;SDS011;33568;45.286;9.900;2024-01-06T08:40:36;32.50;;;28.98;;
47804;SDS011;33568;45.286;9.900;2024-01-06T08:43:03;32.17;;;27.60;;
47804;SDS011;33568;45.286;9.900;2024-01-06T08:45:30;26.83;;;23.88;;
47804;SDS011;33568;45.286;9.900;2024-01-06T08:47:56;26.38;;;23.77;;
47804;SDS011;33568;45.286;9.900;2024-01-06T08:50:23;28.90;;;26.10;;
47804;SDS011;33568;45.286;9.900;2024-01-06T08:52:49;25.70;;;23.20;;
47804;SDS011;33568;45.286;9.900;2024-01-06T08:55:16;28.65;;;25.70;;
47804;SDS011;33568;45.286;9.900;2024-01-06T08:57:42;34.67;;;31.00;;
47804;SDS011;33568;45.286;9.900;2024-01-06T09:00:09;27.48;;;24.77;;
47804;SDS011;33568;45.286;9.900;2024-01-06T09:02:36;27.77;;;24.60;;
47804;SDS011;33568;45.286;9.900;2024-01-06T09:05:03;30.33;;;26.42;;
47804;SDS011;33568;45.286;9.900;2024-01-06T09:07:30;27.73;;;24.92;;
47804;SDS011;33568;45.286;9.900;2024-01-06T09:12:23;26.95;;;24.20;;
47804;SDS011;33568;45.286;9.900;2024-01-06T09:14:49;25.52;;;22.98;;
47804;SDS011;33568;45.286;9.900;2024-01-06T09:17:16;27.50;;;24.75;;
47804;SDS011;33568;45.286;9.900;2024-01-06T09:22:09;24.77;;;22.27;;
47804;SDS011;33568;45.286;9.900;2024-01-06T09:24:35;27.05;;;24.33;;
47804;SDS011;33568;45.286;9.900;2024-01-06T09:27:02;27.50;;;24.65;;
47804;SDS011;33568;45.286;9.900;2024-01-06T09:29:29;28.52;;;25.73;;
47804;SDS011;33568;45.286;9.900;2024-01-06T09:31:55;28.08;;;25.42;;
47804;SDS011;33568;45.286;9.900;2024-01-06T09:34:22;26.58;;;23.85;;
47804;SDS011;33568;45.286;9.900;2024-01-06T09:36:48;25.52;;;23.13;;
47804;SDS011;33568;45.286;9.900;2024-01-06T09:39:14;26.40;;;23.80;;
47804;SDS011;33568;45.286;9.900;2024-01-06T09:41:41;26.40;;;23.73;;
47804;SDS011;33568;45.286;9.900;2024-01-06T09:44:07;27.15;;;24.30;;
47804;SDS011;33568;45.286;9.900;2024-01-06T09:46:34;25.52;;;22.80;;
47804;SDS011;33568;45.286;9.900;2024-01-06T09:49:02;26.70;;;24.02;;
47804;SDS011;33568;45.286;9.900;2024-01-06T09:51:28;25.92;;;23.33;;
47804;SDS011;33568;45.286;9.900;2024-01-06T09:53:59;26.73;;;24.02;;
47804;SDS011;33568;45.286;9.900;2024-01-06T09:56:27;26.92;;;24.30;;
47804;SDS011;33568;45.286;9.900;2024-01-06T09:58:55;31.85;;;28.52;;
47804;SDS011;33568;45.286;9.900;2024-01-06T10:01:21;26.13;;;23.13;;
47804;SDS011;33568;45.286;9.900;2024-01-06T10:03:48;26.85;;;24.27;;
47804;SDS011;33568;45.286;9.900;2024-01-06T10:06:15;27.13;;;24.52;;
47804;SDS011;33568;45.286;9.900;2024-01-06T10:08:49;24.17;;;21.70;;
47804;SDS011;33568;45.286;9.900;2024-01-06T10:11:17;27.30;;;24.42;;
47804;SDS011;33568;45.286;9.900;2024-01-06T10:13:44;26.27;;;23.58;;
47804;SDS011;33568;45.286;9.900;2024-01-06T10:16:10;25.17;;;22.75;;
47804;SDS011;33568;45.286;9.900;2024-01-06T10:18:37;28.98;;;21.92;;
47804;SDS011;33568;45.286;9.900;2024-01-06T10:21:04;24.45;;;21.98;;
47804;SDS011;33568;45.286;9.900;2024-01-06T10:23:34;24.73;;;22.23;;
47804;SDS011;33568;45.286;9.900;2024-01-06T10:26:02;24.67;;;22.17;;
47804;SDS011;33568;45.286;9.900;2024-01-06T10:28:28;26.85;;;24.20;;
47804;SDS011;33568;45.286;9.900;2024-01-06T10:30:55;24.73;;;22.30;;
47804;SDS011;33568;45.286;9.900;2024-01-06T10:33:23;24.60;;;22.05;;
47804;SDS011;33568;45.286;9.900;2024-01-06T10:35:52;25.73;;;23.13;;
47804;SDS011;33568;45.286;9.900;2024-01-06T10:38:20;24.25;;;21.77;;
47804;SDS011;33568;45.286;9.900;2024-01-06T10:43:25;25.55;;;22.95;;
47804;SDS011;33568;45.286;9.900;2024-01-06T10:45:53;26.80;;;24.05;;
47804;SDS011;33568;45.286;9.900;2024-01-06T10:48:24;25.73;;;23.17;;
47804;SDS011;33568;45.286;9.900;2024-01-06T10:50:51;26.65;;;23.92;;
47804;SDS011;33568;45.286;9.900;2024-01-06T10:53:20;25.60;;;23.05;;
47804;SDS011;33568;45.286;9.900;2024-01-06T10:55:49;30.33;;;27.13;;
47804;SDS011;33568;45.286;9.900;2024-01-06T10:58:17;28.52;;;24.48;;
47804;SDS011;33568;45.286;9.900;2024-01-06T11:00:44;29.60;;;25.05;;
47804;SDS011;33568;45.286;9.900;2024-01-06T11:03:12;25.77;;;23.08;;
47804;SDS011;33568;45.286;9.900;2024-01-06T11:05:40;25.95;;;23.38;;
47804;SDS011;33568;45.286;9.900;2024-01-06T11:08:09;24.88;;;22.48;;
47804;SDS011;33568;45.286;9.900;2024-01-06T11:10:37;26.90;;;24.20;;
47804;SDS011;33568;45.286;9.900;2024-01-06T11:13:15;25.88;;;23.27;;
47804;SDS011;33568;45.286;9.900;2024-01-06T11:15:48;22.73;;;20.55;;
47804;SDS011;33568;45.286;9.900;2024-01-06T11:18:32;24.10;;;21.70;;
47804;SDS011;33568;45.286;9.900;2024-01-06T11:21:19;23.13;;;20.70;;
47804;SDS011;33568;45.286;9.900;2024-01-06T11:26:50;24.67;;;22.13;;
47804;SDS011;33568;45.286;9.900;2024-01-06T11:29:18;25.13;;;22.63;;
47804;SDS011;33568;45.286;9.900;2024-01-06T11:34:50;25.42;;;22.85;;
47804;SDS011;33568;45.286;9.900;2024-01-06T11:37:20;27.33;;;24.60;;
47804;SDS011;33568;45.286;9.900;2024-01-06T11:39:50;25.83;;;23.23;;
47804;SDS011;33568;45.286;9.900;2024-01-06T11:44:43;26.70;;;23.90;;
47804;SDS011;33568;45.286;9.900;2024-01-06T11:47:11;27.88;;;25.08;;
47804;SDS011;33568;45.286;9.900;2024-01-06T11:49:38;37.63;;;33.53;;
47804;SDS011;33568;45.286;9.900;2024-01-06T11:52:07;29.58;;;26.48;;
47804;SDS011;33568;45.286;9.900;2024-01-06T11:57:00;26.23;;;23.53;;
47804;SDS011;33568;45.286;9.900;2024-01-06T11:59:27;32.35;;;29.13;;
47804;SDS011;33568;45.286;9.900;2024-01-06T12:01:53;27.98;;;25.00;;
47804;SDS011;33568;45.286;9.900;2024-01-06T12:04:19;27.70;;;24.98;;
47804;SDS011;33568;45.286;9.900;2024-01-06T12:06:48;28.13;;;25.25;;
47804;SDS011;33568;45.286;9.900;2024-01-06T12:09:14;29.60;;;26.60;;
47804;SDS011;33568;45.286;9.900;2024-01-06T12:11:45;28.20;;;25.52;;
47804;SDS011;33568;45.286;9.900;2024-01-06T12:14:12;29.63;;;26.63;;
47804;SDS011;33568;45.286;9.900;2024-01-06T12:16:39;29.88;;;26.73;;
47804;SDS011;33568;45.286;9.900;2024-01-06T12:19:05;32.33;;;29.05;;
47804;SDS011;33568;45.286;9.900;2024-01-06T12:21:32;51.08;;;42.80;;
47804;SDS011;33568;45.286;9.900;2024-01-06T12:24:16;33.33;;;29.90;;
47804;SDS011;33568;45.286;9.900;2024-01-06T12:26:46;26.80;;;24.20;;
47804;SDS011;33568;45.286;9.900;2024-01-06T12:29:13;28.02;;;25.05;;
47804;SDS011;33568;45.286;9.900;2024-01-06T12:31:40;27.80;;;24.95;;
47804;SDS011;33568;45.286;9.900;2024-01-06T12:34:07;26.35;;;23.75;;
47804;SDS011;33568;45.286;9.900;2024-01-06T12:39:00;27.55;;;24.80;;
47804;SDS011;33568;45.286;9.900;2024-01-06T12:41:28;28.50;;;25.63;;
47804;SDS011;33568;45.286;9.900;2024-01-06T12:46:21;28.58;;;25.77;;
47804;SDS011;33568;45.286;9.900;2024-01-06T12:51:14;27.05;;;24.15;;
47804;SDS011;33568;45.286;9.900;2024-01-06T12:53:41;26.33;;;23.88;;
47804;SDS011;33568;45.286;9.900;2024-01-06T12:56:07;27.88;;;25.00;;
47804;SDS011;33568;45.286;9.900;2024-01-06T12:58:34;28.40;;;25.65;;
47804;SDS011;33568;45.286;9.900;2024-01-06T13:03:28;30.13;;;26.98;;
47804;SDS011;33568;45.286;9.900;2024-01-06T13:08:21;28.30;;;25.48;;
47804;SDS011;33568;45.286;9.900;2024-01-06T13:10:47;27.45;;;24.77;;
47804;SDS011;33568;45.286;9.900;2024-01-06T13:13:14;28.27;;;25.38;;
47804;SDS011;33568;45.286;9.900;2024-01-06T13:15:41;28.45;;;25.55;;
47804;SDS011;33568;45.286;9.900;2024-01-06T13:18:07;27.75;;;25.05;;
47804;SDS011;33568;45.286;9.900;2024-01-06T13:20:33;27.20;;;24.42;;
47804;SDS011;33568;45.286;9.900;2024-01-06T13:23:00;28.42;;;25.48;;
47804;SDS011;33568;45.286;9.900;2024-01-06T13:25:26;26.02;;;23.52;;
47804;SDS011;33568;45.286;9.900;2024-01-06T13:27:53;27.83;;;25.02;;
47804;SDS011;33568;45.286;9.900;2024-01-06T13:30:20;28.60;;;25.65;;
47804;SDS011;33568;45.286;9.900;2024-01-06T13:32:46;26.42;;;23.75;;
47804;SDS011;33568;45.286;9.900;2024-01-06T13:35:14;28.00;;;25.15;;
47804;SDS011;33568;45.286;9.900;2024-01-06T13:37:41;27.77;;;25.02;;
47804;SDS011;33568;45.286;9.900;2024-01-06T13:40:09;24.77;;;22.38;;
47804;SDS011;33568;45.286;9.900;2024-01-06T13:42:36;26.35;;;23.63;;
47804;SDS011;33568;45.286;9.900;2024-01-06T13:45:03;26.08;;;23.38;;
47804;SDS011;33568;45.286;9.900;2024-01-06T13:47:30;27.92;;;25.25;;
47804;SDS011;33568;45.286;9.900;2024-01-06T13:49:57;28.02;;;25.27;;
47804;SDS011;33568;45.286;9.900;2024-01-06T13:52:24;38.03;;;32.83;;
47804;SDS011;33568;45.286;9.900;2024-01-06T13:57:17;30.52;;;27.42;;
47804;SDS011;33568;45.286;9.900;2024-01-06T13:59:43;27.25;;;24.65;;
47804;SDS011;33568;45.286;9.900;2024-01-06T14:02:10;33.15;;;29.75;;
47804;SDS011;33568;45.286;9.900;2024-01-06T14:04:36;28.65;;;25.77;;
47804;SDS011;33568;45.286;9.900;2024-01-06T14:09:30;28.47;;;25.63;;
47804;SDS011;33568;45.286;9.900;2024-01-06T14:11:56;26.15;;;23.45;;
47804;SDS011;33568;45.286;9.900;2024-01-06T14:16:49;29.63;;;26.42;;
47804;SDS011;33568;45.286;9.900;2024-01-06T14:19:17;30.52;;;27.33;;
47804;SDS011;33568;45.286;9.900;2024-01-06T14:21:43;28.45;;;25.52;;
47804;SDS011;33568;45.286;9.900;2024-01-06T14:26:36;29.38;;;26.48;;
47804;SDS011;33568;45.286;9.900;2024-01-06T14:29:04;27.98;;;25.20;;
47804;SDS011;33568;45.286;9.900;2024-01-06T14:31:31;29.27;;;26.27;;
47804;SDS011;33568;45.286;9.900;2024-01-06T14:33:58;31.70;;;27.85;;
47804;SDS011;33568;45.286;9.900;2024-01-06T14:36:25;31.58;;;28.33;;
47804;SDS011;33568;45.286;9.900;2024-01-06T14:38:51;33.22;;;29.67;;
47804;SDS011;33568;45.286;9.900;2024-01-06T14:41:18;29.13;;;26.20;;
47804;SDS011;33568;45.286;9.900;2024-01-06T14:43:44;28.58;;;25.58;;
47804;SDS011;33568;45.286;9.900;2024-01-06T14:46:11;29.33;;;26.23;;
47804;SDS011;33568;45.286;9.900;2024-01-06T14:48:37;31.20;;;28.00;;
47804;SDS011;33568;45.286;9.900;2024-01-06T14:51:04;30.52;;;27.33;;
47804;SDS011;33568;45.286;9.900;2024-01-06T14:55:56;27.73;;;24.92;;
47804;SDS011;33568;45.286;9.900;2024-01-06T14:58:23;28.25;;;25.42;;
47804;SDS011;33568;45.286;9.900;2024-01-06T15:00:49;27.50;;;24.88;;
47804;SDS011;33568;45.286;9.900;2024-01-06T15:03:15;30.58;;;27.42;;
47804;SDS011;33568;45.286;9.900;2024-01-06T15:05:43;29.90;;;26.67;;
47804;SDS011;33568;45.286;9.900;2024-01-06T15:08:09;30.27;;;27.17;;
47804;SDS011;33568;45.286;9.900;2024-01-06T15:10:36;29.33;;;25.63;;
47804;SDS011;33568;45.286;9.900;2024-01-06T15:13:02;26.98;;;24.25;;
47804;SDS011;33568;45.286;9.900;2024-01-06T15:15:30;27.42;;;24.60;;
47804;SDS011;33568;45.286;9.900;2024-01-06T15:17:56;28.17;;;25.38;;
47804;SDS011;33568;45.286;9.900;2024-01-06T15:20:22;29.02;;;26.02;;
47804;SDS011;33568;45.286;9.900;2024-01-06T15:22:49;28.73;;;25.75;;
47804;SDS011;33568;45.286;9.900;2024-01-06T15:27:43;31.25;;;28.00;;
47804;SDS011;33568;45.286;9.900;2024-01-06T15:30:10;29.63;;;26.63;;
47804;SDS011;33568;45.286;9.900;2024-01-06T15:35:03;41.92;;;36.22;;
47804;SDS011;33568;45.286;9.900;2024-01-06T15:37:31;40.17;;;35.83;;
47804;SDS011;33568;45.286;9.900;2024-01-06T15:39:57;44.65;;;38.90;;
47804;SDS011;33568;45.286;9.900;2024-01-06T15:42:24;36.92;;;32.72;;
47804;SDS011;33568;45.286;9.900;2024-01-06T15:44:50;40.13;;;34.95;;
47804;SDS011;33568;45.286;9.900;2024-01-06T15:47:17;36.17;;;32.28;;
47804;SDS011;33568;45.286;9.900;2024-01-06T15:49:43;44.33;;;37.13;;
47804;SDS011;33568;45.286;9.900;2024-01-06T15:52:10;37.13;;;33.00;;
47804;SDS011;33568;45.286;9.900;2024-01-06T15:54:36;33.20;;;29.70;;
47804;SDS011;33568;45.286;9.900;2024-01-06T15:59:29;33.78;;;30.08;;
47804;SDS011;33568;45.286;9.900;2024-01-06T16:01:56;33.10;;;29.45;;
47804;SDS011;33568;45.286;9.900;2024-01-06T16:06:48;31.95;;;28.58;;
47804;SDS011;33568;45.286;9.900;2024-01-06T16:09:18;33.60;;;29.95;;
47804;SDS011;33568;45.286;9.900;2024-01-06T16:14:10;37.03;;;32.45;;
47804;SDS011;33568;45.286;9.900;2024-01-06T16:16:37;36.00;;;32.22;;
47804;SDS011;33568;45.286;9.900;2024-01-06T16:19:03;38.13;;;34.10;;
47804;SDS011;33568;45.286;9.900;2024-01-06T16:21:30;40.70;;;35.88;;
47804;SDS011;33568;45.286;9.900;2024-01-06T16:23:56;34.90;;;31.10;;